Time;durP1;ratioP1;P1;durP2;ratioP2;P2;SDS_P1;SDS_P2;PMS_P1;PMS_P2;Temp;Humidity;BMP_temperature;BMP_pressure;BME280_temperature;BME280_humidity;BME280_pressure;Samples;Min_cycle;Max_cycle;Signal;HPM_P1;HPM_P2
2021/06/06 00:00:33;;;;;;;;;;;17.00;99.90;;;;;;10511313;28;20003;-59
2021/06/06 00:05:41;;;;;;;;;;;16.90;99.90;;;;;;10504494;28;19925;-58
2021/06/06 00:10:44;;;;;;;;;;;17.00;99.90;;;;;;10514684;28;19928;-59
2021/06/06 00:15:46;;;;;;;;;;;16.90;99.90;;;;;;10509787;28;20294;-59
2021/06/06 00:20:48;;;;;;;;;;;16.90;99.90;;;;;;10492641;28;19969;-59
2021/06/06 00:25:50;;;;;;;;;;;16.90;99.90;;;;;;10515621;28;19986;-59
2021/06/06 00:30:52;;;;;;;;;;;16.80;99.90;;;;;;10530692;28;20273;-58
2021/06/06 00:35:54;;;;;;;;;;;16.90;99.90;;;;;;10491441;28;19924;-59
2021/06/06 00:40:58;;;;;;;;;;;16.80;99.90;;;;;;10531622;28;19924;-59
2021/06/06 00:46:00;;;;;;;;;;;16.80;99.90;;;;;;10490938;28;20015;-59
2021/06/06 00:51:06;;;;;;;;;;;16.80;99.90;;;;;;10490631;28;20387;-58
2021/06/06 00:56:11;;;;;;;;;;;16.70;99.90;;;;;;10491137;28;20023;-59
2021/06/06 01:01:16;;;;;;;;;;;16.60;99.90;;;;;;10530696;28;20008;-59
2021/06/06 01:06:29;;;;;;;;;;;16.70;99.90;;;;;;10528797;28;19969;-58
2021/06/06 01:11:43;;;;;;;;;;;16.70;99.90;;;;;;10502296;28;19931;-59
2021/06/06 01:17:04;;;;;;;;;;;16.60;99.90;;;;;;10527906;28;19956;-58
2021/06/06 01:22:26;;;;;;;;;;;16.50;99.90;;;;;;10494698;28;20014;-59
2021/06/06 01:27:29;;;;;;;;;;;16.40;99.90;;;;;;10517165;28;20022;-59
2021/06/06 01:32:30;;;;;;;;;;;16.50;99.90;;;;;;10521704;28;20362;-59
2021/06/06 01:37:34;;;;;;;;;;;16.40;99.90;;;;;;10502561;28;19932;-59
2021/06/06 01:42:38;;;;;;;;;;;16.50;99.90;;;;;;10508750;28;20020;-59
2021/06/06 01:47:41;;;;;;;;;;;16.40;99.90;;;;;;10505092;28;19932;-59
2021/06/06 01:52:43;;;;;;;;;;;16.40;99.90;;;;;;10488763;28;19924;-59
2021/06/06 01:57:45;;;;;;;;;;;16.30;99.90;;;;;;10488763;28;20447;-59
2021/06/06 02:02:47;;;;;;;;;;;16.40;99.90;;;;;;10503473;28;19928;-59
2021/06/06 02:07:51;;;;;;;;;;;16.40;99.90;;;;;;10508370;28;19929;-59
2021/06/06 02:12:57;;;;;;;;;;;16.30;99.90;;;;;;10520952;28;20023;-59
2021/06/06 02:18:00;;;;;;;;;;;16.10;99.90;;;;;;10534910;28;19931;-58
2021/06/06 02:23:03;;;;;;;;;;;16.10;99.90;;;;;;10534707;28;20459;-59
2021/06/06 02:28:18;;;;;;;;;;;16.10;99.90;;;;;;10534500;28;20000;-59
2021/06/06 02:33:31;;;;;;;;;;;16.00;99.90;;;;;;10504831;28;20011;-59
2021/06/06 02:38:36;;;;;;;;;;;15.90;99.90;;;;;;10534038;28;20452;-58
2021/06/06 02:43:44;;;;;;;;;;;15.90;99.90;;;;;;10499591;28;20337;-59
2021/06/06 02:48:48;;;;;;;;;;;15.80;99.90;;;;;;10494993;28;20066;-59
2021/06/06 02:53:50;;;;;;;;;;;15.70;99.90;;;;;;10530176;28;19924;-58
2021/06/06 02:59:01;;;;;;;;;;;15.70;99.90;;;;;;10498861;28;20020;-59
2021/06/06 03:04:05;;;;;;;;;;;15.70;99.90;;;;;;10502287;28;20019;-59
2021/06/06 03:09:08;;;;;;;;;;;15.70;99.90;;;;;;10502192;28;19930;-59
2021/06/06 03:14:12;;;;;;;;;;;15.70;99.90;;;;;;10526735;28;20440;-59
2021/06/06 03:19:14;;;;;;;;;;;15.70;99.90;;;;;;10502087;28;20011;-59
2021/06/06 03:24:36;;;;;;;;;;;15.70;99.90;;;;;;10527487;28;20351;-59
2021/06/06 03:29:44;;;;;;;;;;;15.70;99.90;;;;;;10494675;28;19928;-59
2021/06/06 03:34:46;;;;;;;;;;;15.50;99.90;;;;;;10494657;28;20019;-59
2021/06/06 03:39:47;;;;;;;;;;;15.60;99.90;;;;;;10502526;28;19928;-59
2021/06/06 03:44:49;;;;;;;;;;;15.60;99.90;;;;;;10533162;28;20346;-58
2021/06/06 03:49:51;;;;;;;;;;;15.60;99.90;;;;;;10523923;28;20362;-58
2021/06/06 03:54:55;;;;;;;;;;;15.60;99.90;;;;;;10502438;28;19931;-59
2021/06/06 03:59:57;;;;;;;;;;;15.60;99.90;;;;;;10523026;28;20023;-59
2021/06/06 04:04:59;;;;;;;;;;;15.60;99.90;;;;;;10511966;28;20023;-58
2021/06/06 04:10:01;;;;;;;;;;;15.50;99.90;;;;;;10491662;28;20346;-59
2021/06/06 04:15:04;;;;;;;;;;;15.40;99.90;;;;;;10503232;28;19938;-58
2021/06/06 04:20:06;;;;;;;;;;;15.40;99.90;;;;;;10520610;28;20055;-59
2021/06/06 04:25:09;;;;;;;;;;;15.30;99.90;;;;;;10502631;28;19928;-59
2021/06/06 04:30:12;;;;;;;;;;;15.20;99.90;;;;;;10531447;28;20017;-59
2021/06/06 04:35:14;;;;;;;;;;;15.30;99.90;;;;;;10513662;28;19925;-59
2021/06/06 04:40:16;;;;;;;;;;;15.30;99.90;;;;;;10509355;28;19952;-58
2021/06/06 04:45:19;;;;;;;;;;;15.30;99.90;;;;;;10514334;28;19928;-59
2021/06/06 04:50:21;;;;;;;;;;;15.30;99.90;;;;;;10492029;28;19978;-59
2021/06/06 04:55:23;;;;;;;;;;;15.30;99.90;;;;;;10491086;28;20011;-58
2021/06/06 05:00:26;;;;;;;;;;;15.20;99.90;;;;;;10507192;28;19971;-59
2021/06/06 05:05:28;;;;;;;;;;;15.20;99.90;;;;;;10498417;28;20034;-59
2021/06/06 05:10:31;;;;;;;;;;;15.20;99.90;;;;;;10505969;28;19925;-59
2021/06/06 05:15:33;;;;;;;;;;;15.10;99.90;;;;;;10514489;28;20471;-59
2021/06/06 05:20:37;;;;;;;;;;;15.10;99.90;;;;;;10519073;28;20463;-58
2021/06/06 05:25:40;;;;;;;;;;;15.00;99.90;;;;;;10529353;28;20366;-59
2021/06/06 05:30:42;;;;;;;;;;;15.10;99.90;;;;;;10529320;28;20019;-59
2021/06/06 05:35:44;;;;;;;;;;;15.20;99.90;;;;;;10500623;28;20356;-59
2021/06/06 05:40:46;;;;;;;;;;;15.20;99.90;;;;;;10516826;28;20018;-59
2021/06/06 05:45:48;;;;;;;;;;;15.20;99.90;;;;;;10501371;28;19976;-59
2021/06/06 05:50:52;;;;;;;;;;;15.30;99.90;;;;;;10515642;28;20026;-59
2021/06/06 05:55:54;;;;;;;;;;;15.30;99.90;;;;;;10502187;28;20015;-58
2021/06/06 06:00:55;;;;;;;;;;;15.30;99.90;;;;;;10488911;28;20363;-58
2021/06/06 06:05:58;;;;;;;;;;;15.40;99.90;;;;;;10496447;28;20019;-58
2021/06/06 06:10:59;;;;;;;;;;;15.30;99.90;;;;;;10488768;28;19924;-58
2021/06/06 06:16:03;;;;;;;;;;;15.40;99.90;;;;;;10488922;28;20023;-58
2021/06/06 06:21:07;;;;;;;;;;;15.40;99.90;;;;;;10516819;28;20420;-59
2021/06/06 06:26:09;;;;;;;;;;;15.50;99.90;;;;;;10499969;28;19928;-59
2021/06/06 06:31:10;;;;;;;;;;;15.50;99.90;;;;;;10524461;28;20499;-59
2021/06/06 06:36:14;;;;;;;;;;;15.50;99.90;;;;;;10492898;28;19935;-59
2021/06/06 06:41:17;;;;;;;;;;;15.50;99.90;;;;;;10524613;28;20014;-58
2021/06/06 06:46:19;;;;;;;;;;;15.50;99.90;;;;;;10527267;28;20018;-59
2021/06/06 06:51:21;;;;;;;;;;;15.60;99.90;;;;;;10512158;28;20356;-58
2021/06/06 06:56:24;;;;;;;;;;;15.70;99.90;;;;;;10527328;28;19924;-59
2021/06/06 07:01:27;;;;;;;;;;;15.80;99.90;;;;;;10533001;28;20386;-60
2021/06/06 07:06:30;;;;;;;;;;;15.90;99.90;;;;;;10517833;28;20348;-59
2021/06/06 07:11:32;;;;;;;;;;;16.00;99.90;;;;;;10512424;28;20685;-59
2021/06/06 07:16:34;;;;;;;;;;;16.20;99.90;;;;;;10528337;28;20416;-59
2021/06/06 07:21:37;;;;;;;;;;;16.30;99.90;;;;;;10522773;28;20014;-59
2021/06/06 07:26:42;;;;;;;;;;;16.30;99.90;;;;;;10534114;28;19928;-59
2021/06/06 07:31:45;;;;;;;;;;;16.20;99.90;;;;;;10532827;28;19968;-59
2021/06/06 07:36:47;;;;;;;;;;;16.40;99.90;;;;;;10513531;28;19982;-59
2021/06/06 07:41:49;;;;;;;;;;;16.50;99.90;;;;;;10519196;28;19928;-59
2021/06/06 07:46:51;;;;;;;;;;;16.60;99.90;;;;;;10532417;28;19970;-59
2021/06/06 07:51:53;;;;;;;;;;;16.80;99.90;;;;;;10507416;28;20011;-59
2021/06/06 07:56:57;;;;;;;;;;;17.00;99.90;;;;;;10496919;28;20015;-59
2021/06/06 08:01:59;;;;;;;;;;;17.10;99.90;;;;;;10527784;28;20293;-59
2021/06/06 08:07:01;;;;;;;;;;;17.00;99.90;;;;;;10490767;28;20180;-59
2021/06/06 08:12:03;;;;;;;;;;;17.00;99.90;;;;;;10491328;28;20039;-59
2021/06/06 08:17:05;;;;;;;;;;;17.00;99.90;;;;;;10524733;28;20031;-59
2021/06/06 08:22:07;;;;;;;;;;;17.20;99.90;;;;;;10517510;28;20011;-59
2021/06/06 08:27:09;;;;;;;;;;;17.40;99.90;;;;;;10507776;28;19929;-59
2021/06/06 08:32:12;;;;;;;;;;;17.60;99.90;;;;;;10516091;28;20019;-59
2021/06/06 08:37:14;;;;;;;;;;;17.70;99.90;;;;;;10514096;28;19924;-59
2021/06/06 08:42:19;;;;;;;;;;;17.50;99.90;;;;;;10489931;28;19969;-67
2021/06/06 08:47:24;;;;;;;;;;;17.50;99.90;;;;;;10505113;28;20015;-66
2021/06/06 08:52:35;;;;;;;;;;;17.60;99.90;;;;;;10491213;28;20015;-66
2021/06/06 08:57:43;;;;;;;;;;;17.70;99.90;;;;;;10513106;28;19928;-67
2021/06/06 09:02:49;;;;;;;;;;;17.90;99.90;;;;;;10509139;28;20011;-67
2021/06/06 09:07:52;;;;;;;;;;;18.00;99.90;;;;;;10516485;28;20026;-66
2021/06/06 09:12:55;;;;;;;;;;;18.20;99.90;;;;;;10504594;28;19925;-66
2021/06/06 09:17:58;;;;;;;;;;;18.20;99.90;;;;;;10516546;28;20338;-66
2021/06/06 09:23:07;;;;;;;;;;;18.30;99.90;;;;;;10500755;28;19932;-65
2021/06/06 09:28:09;;;;;;;;;;;18.10;99.90;;;;;;10494636;28;20085;-67
2021/06/06 09:33:13;;;;;;;;;;;18.10;99.90;;;;;;10489096;28;19931;-67
2021/06/06 09:38:33;;;;;;;;;;;18.20;99.90;;;;;;10487965;28;19970;-67
2021/06/06 09:43:35;;;;;;;;;;;18.40;99.90;;;;;;10488842;28;19939;-67
2021/06/06 09:48:41;;;;;;;;;;;18.70;99.90;;;;;;10488501;28;20020;-67
2021/06/06 09:53:44;;;;;;;;;;;19.00;99.90;;;;;;10488334;28;20020;-67
2021/06/06 09:58:45;;;;;;;;;;;19.00;99.90;;;;;;10488500;28;20003;-67
2021/06/06 10:03:55;;;;;;;;;;;19.00;99.90;;;;;;10508807;28;19924;-67
2021/06/06 10:09:08;;;;;;;;;;;19.20;99.90;;;;;;10528844;28;19935;-67
2021/06/06 10:14:10;;;;;;;;;;;19.50;99.90;;;;;;10524183;28;19940;-67
2021/06/06 10:19:25;;;;;;;;;;;19.50;99.90;;;;;;10526129;28;20094;-67
2021/06/06 10:25:08;;;;;;;;;;;19.80;99.90;;;;;;10493601;28;20019;-67
2021/06/06 10:30:16;;;;;;;;;;;20.00;99.90;;;;;;10485244;28;20326;-67
2021/06/06 10:35:23;;;;;;;;;;;19.50;99.90;;;;;;10486888;28;19977;-67
2021/06/06 10:40:31;;;;;;;;;;;19.20;99.90;;;;;;10487321;28;20506;-67
2021/06/06 10:45:36;;;;;;;;;;;19.30;99.90;;;;;;10486164;28;19924;-67
2021/06/06 10:50:40;;;;;;;;;;;19.20;99.90;;;;;;10502331;28;19925;-67
2021/06/06 10:56:00;;;;;;;;;;;19.20;99.90;;;;;;10487176;28;20352;-68
2021/06/06 11:01:02;;;;;;;;;;;19.30;99.90;;;;;;10487057;28;19924;-68
2021/06/06 11:06:07;;;;;;;;;;;19.40;99.90;;;;;;10526122;28;20015;-67
2021/06/06 11:11:18;;;;;;;;;;;19.60;99.90;;;;;;10528208;28;20023;-67
2021/06/06 11:16:20;;;;;;;;;;;19.30;99.90;;;;;;10528540;28;20018;-67
2021/06/06 11:21:30;;;;;;;;;;;19.70;99.90;;;;;;10528407;28;19966;-67
2021/06/06 11:26:32;;;;;;;;;;;20.00;99.90;;;;;;10528985;28;19954;-67
2021/06/06 11:31:35;;;;;;;;;;;19.60;99.90;;;;;;10501350;28;19928;-67
2021/06/06 11:36:42;;;;;;;;;;;19.60;99.90;;;;;;10493871;28;19924;-67
2021/06/06 11:41:45;;;;;;;;;;;19.20;99.90;;;;;;10498002;28;20040;-67
2021/06/06 11:46:50;;;;;;;;;;;18.90;99.90;;;;;;10534728;28;19969;-67
2021/06/06 11:51:54;;;;;;;;;;;19.00;99.90;;;;;;10534886;28;20366;-67
2021/06/06 11:56:59;;;;;;;;;;;18.70;99.90;;;;;;10534922;28;20330;-67
2021/06/06 12:02:16;;;;;;;;;;;18.90;99.90;;;;;;10527694;28;20316;-67
2021/06/06 12:07:17;;;;;;;;;;;19.10;99.90;;;;;;10491866;28;20019;-67
2021/06/06 12:12:25;;;;;;;;;;;19.00;99.90;;;;;;10500576;28;19931;-67
2021/06/06 12:17:27;;;;;;;;;;;18.80;99.90;;;;;;10533057;28;20345;-67
2021/06/06 12:22:29;;;;;;;;;;;19.10;99.90;;;;;;10533697;28;20364;-67
2021/06/06 12:27:33;;;;;;;;;;;19.30;99.90;;;;;;10533262;28;20345;-67
2021/06/06 12:32:38;;;;;;;;;;;19.10;99.90;;;;;;10532887;28;19928;-67
2021/06/06 12:37:40;;;;;;;;;;;19.10;99.90;;;;;;10533410;28;20023;-67
2021/06/06 12:42:42;;;;;;;;;;;19.10;99.90;;;;;;10521380;28;19924;-67
2021/06/06 12:47:45;;;;;;;;;;;19.00;99.90;;;;;;10488399;28;19924;-67
2021/06/06 12:52:57;;;;;;;;;;;19.10;99.90;;;;;;10488606;28;20394;-67
2021/06/06 12:58:19;;;;;;;;;;;18.80;99.90;;;;;;10509208;28;20297;-67
2021/06/06 13:03:27;;;;;;;;;;;18.20;99.90;;;;;;10488178;28;19931;-67
2021/06/06 13:08:35;;;;;;;;;;;18.10;99.90;;;;;;10487013;28;19993;-67
2021/06/06 13:13:39;;;;;;;;;;;18.00;99.90;;;;;;10486723;28;19928;-66
2021/06/06 13:18:41;;;;;;;;;;;18.10;99.90;;;;;;10488338;28;20015;-67
2021/06/06 13:23:44;;;;;;;;;;;18.30;99.90;;;;;;10487033;28;20356;-67
2021/06/06 13:29:06;;;;;;;;;;;18.40;99.90;;;;;;10487400;28;20396;-67
2021/06/06 13:34:09;;;;;;;;;;;18.50;99.90;;;;;;10487509;28;19928;-67
2021/06/06 13:39:12;;;;;;;;;;;18.90;99.90;;;;;;10486304;28;19928;-67
2021/06/06 13:44:14;;;;;;;;;;;19.10;99.90;;;;;;10512815;28;19925;-67
2021/06/06 13:49:18;;;;;;;;;;;19.20;99.90;;;;;;10528230;28;19970;-67
2021/06/06 13:54:20;;;;;;;;;;;19.50;99.90;;;;;;10525238;28;20014;-67
2021/06/06 13:59:22;;;;;;;;;;;19.50;99.90;;;;;;10484675;28;20023;-68
2021/06/06 14:04:23;;;;;;;;;;;19.40;99.90;;;;;;10511074;28;19924;-68
2021/06/06 14:09:25;;;;;;;;;;;19.30;99.90;;;;;;10528123;28;20038;-67
2021/06/06 14:14:27;;;;;;;;;;;19.40;99.90;;;;;;10526584;28;20299;-67
2021/06/06 14:19:31;;;;;;;;;;;19.20;99.90;;;;;;10528052;28;20464;-68
2021/06/06 14:24:34;;;;;;;;;;;19.10;99.90;;;;;;10526663;28;20019;-67
2021/06/06 14:29:36;;;;;;;;;;;19.10;99.90;;;;;;10527701;28;19924;-68
2021/06/06 14:34:38;;;;;;;;;;;19.10;99.90;;;;;;10526969;28;20303;-68
2021/06/06 14:39:40;;;;;;;;;;;19.10;99.90;;;;;;10527640;28;19927;-67
2021/06/06 14:44:42;;;;;;;;;;;19.10;99.90;;;;;;10494247;28;19928;-67
2021/06/06 14:49:44;;;;;;;;;;;19.10;99.90;;;;;;10485657;28;19935;-67
2021/06/06 14:54:46;;;;;;;;;;;19.10;99.90;;;;;;10486395;28;19928;-67
2021/06/06 14:59:48;;;;;;;;;;;18.90;99.90;;;;;;10485738;28;20022;-68
2021/06/06 15:04:50;;;;;;;;;;;18.80;99.90;;;;;;10518343;28;20542;-67
2021/06/06 15:09:52;;;;;;;;;;;18.60;99.90;;;;;;10535570;28;19924;-68
2021/06/06 15:14:53;;;;;;;;;;;18.40;99.90;;;;;;10499482;28;19928;-67
2021/06/06 15:19:58;;;;;;;;;;;18.40;99.90;;;;;;10493515;28;20008;-68
2021/06/06 15:25:00;;;;;;;;;;;18.50;99.90;;;;;;10495244;28;20319;-68
2021/06/06 15:30:05;;;;;;;;;;;18.60;99.90;;;;;;10496101;28;20047;-68
2021/06/06 15:35:10;;;;;;;;;;;18.60;99.90;;;;;;10507021;28;20018;-68
2021/06/06 15:40:14;;;;;;;;;;;18.40;99.90;;;;;;10533946;28;19928;-67
2021/06/06 15:45:16;;;;;;;;;;;18.30;99.90;;;;;;10533363;28;19924;-67
2021/06/06 15:50:20;;;;;;;;;;;18.40;99.90;;;;;;10533765;28;20010;-67
2021/06/06 15:55:24;;;;;;;;;;;18.40;99.90;;;;;;10531381;28;19924;-68
2021/06/06 16:00:26;;;;;;;;;;;18.40;99.90;;;;;;10532641;28;20027;-67
2021/06/06 16:05:28;;;;;;;;;;;18.30;99.90;;;;;;10499153;28;19978;-67
2021/06/06 16:10:31;;;;;;;;;;;18.20;99.90;;;;;;10490453;28;19931;-68
2021/06/06 16:15:33;;;;;;;;;;;18.00;99.90;;;;;;10489754;28;20372;-68
2021/06/06 16:20:36;;;;;;;;;;;17.80;99.90;;;;;;10505506;28;20021;-67
2021/06/06 16:25:38;;;;;;;;;;;17.90;99.90;;;;;;10531805;28;19924;-67
2021/06/06 16:30:40;;;;;;;;;;;17.80;99.90;;;;;;10531855;28;20004;-67
2021/06/06 16:35:42;;;;;;;;;;;17.70;99.90;;;;;;10530899;28;20014;-67
2021/06/06 16:40:43;;;;;;;;;;;17.60;99.90;;;;;;10530971;28;19924;-67
2021/06/06 16:45:46;;;;;;;;;;;17.60;99.90;;;;;;10531094;28;20138;-67
2021/06/06 16:50:49;;;;;;;;;;;17.70;99.90;;;;;;10522805;28;20015;-67
2021/06/06 16:55:52;;;;;;;;;;;17.80;99.90;;;;;;10489082;28;19973;-67
2021/06/06 17:00:55;;;;;;;;;;;17.80;99.90;;;;;;10488473;28;20032;-67
2021/06/06 17:05:59;;;;;;;;;;;17.70;99.90;;;;;;10527660;28;19938;-67
2021/06/06 17:11:01;;;;;;;;;;;17.70;99.90;;;;;;10500455;28;19935;-67
2021/06/06 17:16:07;;;;;;;;;;;17.70;99.90;;;;;;10488352;28;20011;-67
2021/06/06 17:21:11;;;;;;;;;;;17.60;99.90;;;;;;10487939;28;20360;-67
2021/06/06 17:26:15;;;;;;;;;;;17.40;99.90;;;;;;10487436;28;20007;-67
2021/06/06 17:31:37;;;;;;;;;;;17.40;99.90;;;;;;10488858;28;19940;-67
2021/06/06 17:36:40;;;;;;;;;;;17.40;99.90;;;;;;10524111;28;19974;-67
2021/06/06 17:41:43;;;;;;;;;;;17.40;99.90;;;;;;10519787;28;19928;-68
2021/06/06 17:46:47;;;;;;;;;;;17.40;99.90;;;;;;10490645;28;20491;-68
2021/06/06 17:51:49;;;;;;;;;;;17.40;99.90;;;;;;10505430;28;20383;-67
2021/06/06 17:56:51;;;;;;;;;;;17.40;99.90;;;;;;10515916;28;20027;-68
2021/06/06 18:01:53;;;;;;;;;;;17.30;99.90;;;;;;10524185;28;20019;-68
2021/06/06 18:06:54;;;;;;;;;;;17.30;99.90;;;;;;10486250;28;19924;-67
2021/06/06 18:11:57;;;;;;;;;;;17.20;99.90;;;;;;10486936;28;20050;-67
2021/06/06 18:17:14;;;;;;;;;;;17.30;99.90;;;;;;10451724;28;20818;-67
2021/06/06 18:22:18;;;;;;;;;;;17.40;99.90;;;;;;10487430;28;20004;-68
2021/06/06 18:27:21;;;;;;;;;;;17.40;99.90;;;;;;10485972;28;19939;-67
2021/06/06 18:32:23;;;;;;;;;;;17.20;99.90;;;;;;10514633;28;19925;-67
2021/06/06 18:37:31;;;;;;;;;;;17.30;99.90;;;;;;10510592;28;19968;-68
2021/06/06 18:42:33;;;;;;;;;;;17.20;99.90;;;;;;10493087;28;20344;-67
2021/06/06 18:47:35;;;;;;;;;;;17.20;99.90;;;;;;10493924;28;19931;-67
2021/06/06 18:52:41;;;;;;;;;;;17.10;99.90;;;;;;10494083;28;19934;-67
2021/06/06 18:57:44;;;;;;;;;;;17.20;99.90;;;;;;10493372;28;19925;-67
2021/06/06 19:02:45;;;;;;;;;;;17.10;99.90;;;;;;10504063;28;19924;-67
2021/06/06 19:07:47;;;;;;;;;;;17.10;99.90;;;;;;10515965;28;19924;-68
2021/06/06 19:12:50;;;;;;;;;;;17.20;99.90;;;;;;10519608;28;20378;-68
2021/06/06 19:17:52;;;;;;;;;;;17.10;99.90;;;;;;10534891;28;20473;-67
2021/06/06 19:22:54;;;;;;;;;;;17.00;99.90;;;;;;10535306;28;20015;-67
2021/06/06 19:27:56;;;;;;;;;;;16.90;99.90;;;;;;10524085;28;19925;-67
2021/06/06 19:32:59;;;;;;;;;;;17.00;99.90;;;;;;10490977;28;19925;-67
2021/06/06 19:38:02;;;;;;;;;;;17.00;99.90;;;;;;10491768;28;19935;-67
2021/06/06 19:43:05;;;;;;;;;;;17.00;99.90;;;;;;10491771;28;19924;-67
2021/06/06 19:48:07;;;;;;;;;;;17.00;99.90;;;;;;10491485;28;19934;-67
2021/06/06 19:53:12;;;;;;;;;;;16.90;99.90;;;;;;10487335;28;20500;-67
2021/06/06 19:58:14;;;;;;;;;;;16.80;99.90;;;;;;10494682;28;20027;-67
2021/06/06 20:03:17;;;;;;;;;;;16.80;99.90;;;;;;10506742;28;19960;-68
2021/06/06 20:08:23;;;;;;;;;;;16.80;99.90;;;;;;10533494;28;20628;-67
2021/06/06 20:13:29;;;;;;;;;;;16.80;99.90;;;;;;10510345;28;20011;-68
2021/06/06 20:18:30;;;;;;;;;;;16.80;99.90;;;;;;10490829;28;19978;-68
2021/06/06 20:23:33;;;;;;;;;;;16.80;99.90;;;;;;10490435;28;19925;-68
2021/06/06 20:28:36;;;;;;;;;;;16.70;99.90;;;;;;10491041;28;19942;-68
2021/06/06 20:34:01;;;;;;;;;;;16.70;99.90;;;;;;10491473;28;19967;-68
2021/06/06 20:39:00;;;;;;;;;;;16.60;99.90;;;;;;10519065;28;20015;-67
2021/06/06 20:44:05;;;;;;;;;;;16.60;99.90;;;;;;10532954;28;19924;-68
2021/06/06 20:49:08;;;;;;;;;;;16.60;99.90;;;;;;10533219;28;20014;-68
2021/06/06 20:54:11;;;;;;;;;;;16.60;99.90;;;;;;10531029;28;19931;-68
2021/06/06 20:59:13;;;;;;;;;;;16.70;99.90;;;;;;10509049;28;19924;-68
2021/06/06 21:04:15;;;;;;;;;;;16.60;99.90;;;;;;10527406;28;20019;-60
2021/06/06 21:09:17;;;;;;;;;;;16.70;99.90;;;;;;10494069;28;20366;-60
2021/06/06 21:14:19;;;;;;;;;;;16.60;99.90;;;;;;10503813;28;19925;-59
2021/06/06 21:19:21;;;;;;;;;;;16.50;99.90;;;;;;10511315;28;19928;-60
2021/06/06 21:24:24;;;;;;;;;;;16.40;99.90;;;;;;10519745;28;20067;-60
2021/06/06 21:29:26;;;;;;;;;;;16.40;99.90;;;;;;10496836;28;20011;-60
2021/06/06 21:34:27;;;;;;;;;;;16.40;99.90;;;;;;10503607;28;19984;-60
2021/06/06 21:39:29;;;;;;;;;;;16.40;99.90;;;;;;10522589;28;19932;-60
2021/06/06 21:44:34;;;;;;;;;;;16.40;99.90;;;;;;10525457;28;19981;-59
2021/06/06 21:49:35;;;;;;;;;;;16.40;99.90;;;;;;10507391;28;19963;-60
2021/06/06 21:54:37;;;;;;;;;;;16.40;99.90;;;;;;10507754;28;19924;-60
2021/06/06 21:59:39;;;;;;;;;;;16.40;99.90;;;;;;10501727;28;20388;-60
2021/06/06 22:04:41;;;;;;;;;;;16.40;99.90;;;;;;10491454;28;19984;-59
2021/06/06 22:09:43;;;;;;;;;;;16.40;99.90;;;;;;10504959;28;20011;-59
2021/06/06 22:14:45;;;;;;;;;;;16.40;99.90;;;;;;10502078;28;19934;-59
2021/06/06 22:20:05;;;;;;;;;;;16.30;99.90;;;;;;10507171;28;19928;-59
2021/06/06 22:25:25;;;;;;;;;;;16.30;99.90;;;;;;10509568;28;20627;-60
2021/06/06 22:30:46;;;;;;;;;;;16.30;99.90;;;;;;10506972;28;20434;-59
2021/06/06 22:36:06;;;;;;;;;;;16.30;99.90;;;;;;10509862;28;20357;-60
2021/06/06 22:41:27;;;;;;;;;;;16.30;99.90;;;;;;10493142;28;19928;-60
2021/06/06 22:46:48;;;;;;;;;;;16.30;99.90;;;;;;10519498;28;20365;-60
2021/06/06 22:52:08;;;;;;;;;;;16.20;99.90;;;;;;10524880;28;20007;-59
2021/06/06 22:57:29;;;;;;;;;;;16.30;99.90;;;;;;10495020;28;20084;-60
2021/06/06 23:02:49;;;;;;;;;;;16.20;99.90;;;;;;10497155;28;20336;-60
2021/06/06 23:08:12;;;;;;;;;;;16.20;99.90;;;;;;10521736;28;19994;-60
2021/06/06 23:13:32;;;;;;;;;;;16.20;99.90;;;;;;10514000;28;20417;-60
2021/06/06 23:18:35;;;;;;;;;;;16.10;99.90;;;;;;10522286;28;19924;-59
2021/06/06 23:23:37;;;;;;;;;;;16.10;99.90;;;;;;10520401;28;19983;-60
2021/06/06 23:28:39;;;;;;;;;;;16.10;99.90;;;;;;10503208;28;20003;-59
2021/06/06 23:33:40;;;;;;;;;;;16.00;99.90;;;;;;10519870;28;20435;-60
2021/06/06 23:38:42;;;;;;;;;;;16.00;99.90;;;;;;10494314;28;20050;-60
2021/06/06 23:43:44;;;;;;;;;;;16.00;99.90;;;;;;10514357;28;19929;-60
2021/06/06 23:48:46;;;;;;;;;;;15.90;99.90;;;;;;10506453;28;20015;-59
2021/06/06 23:53:48;;;;;;;;;;;15.90;99.90;;;;;;10518951;28;19924;-59
2021/06/06 23:58:50;;;;;;;;;;;15.90;99.90;;;;;;10527236;28;19932;-59
